sensor_id;sensor_type;location;lat;lon;timestamp;pressure;altitude;pressure_sealevel;temperature;humidity
76052;BME280;64751;48.708;9.710;2024-01-16T00:01:19;96999.28;;;-1.46;84.10
76052;BME280;64751;48.708;9.710;2024-01-16T00:03:52;96994.91;;;-1.45;84.41
76052;BME280;64751;48.708;9.710;2024-01-16T00:06:24;97001.69;;;-1.44;84.96
76052;BME280;64751;48.708;9.710;2024-01-16T00:08:53;96999.28;;;-1.46;84.90
76052;BME280;64751;48.708;9.710;2024-01-16T00:11:25;96998.88;;;-1.42;84.94
76052;BME280;64751;48.708;9.710;2024-01-16T00:13:53;97003.06;;;-1.41;84.15
76052;BME280;64751;48.708;9.710;2024-01-16T00:16:20;96995.72;;;-1.44;83.70
76052;BME280;64751;48.708;9.710;2024-01-16T00:18:48;96998.06;;;-1.43;84.08
76052;BME280;64751;48.708;9.710;2024-01-16T00:21:15;96997.66;;;-1.40;84.41
76052;BME280;64751;48.708;9.710;2024-01-16T00:23:43;97006.22;;;-1.39;84.02
76052;BME280;64751;48.708;9.710;2024-01-16T00:26:20;96996.28;;;-1.42;83.72
76052;BME280;64751;48.708;9.710;2024-01-16T00:28:48;96993.84;;;-1.37;83.82
76052;BME280;64751;48.708;9.710;2024-01-16T00:31:20;96993.84;;;-1.37;83.37
76052;BME280;64751;48.708;9.710;2024-01-16T00:33:53;96990.69;;;-1.39;83.00
76052;BME280;64751;48.708;9.710;2024-01-16T00:36:20;96993.69;;;-1.42;83.00
76052;BME280;64751;48.708;9.710;2024-01-16T00:38:47;96998.88;;;-1.42;84.19
76052;BME280;64751;48.708;9.710;2024-01-16T00:41:15;97000.31;;;-1.47;80.82
76052;BME280;64751;48.708;9.710;2024-01-16T00:43:49;96997.72;;;-1.47;82.40
76052;BME280;64751;48.708;9.710;2024-01-16T00:46:21;97001.53;;;-1.49;82.84
76052;BME280;64751;48.708;9.710;2024-01-16T00:48:54;97007.28;;;-1.47;83.28
76052;BME280;64751;48.708;9.710;2024-01-16T00:51:26;97006.69;;;-1.49;83.10
76052;BME280;64751;48.708;9.710;2024-01-16T00:53:54;97004.34;;;-1.51;82.91
76052;BME280;64751;48.708;9.710;2024-01-16T00:56:21;97008.50;;;-1.50;82.81
76052;BME280;64751;48.708;9.710;2024-01-16T00:58:50;97015.28;;;-1.49;82.83
76052;BME280;64751;48.708;9.710;2024-01-16T01:01:17;97018.44;;;-1.47;83.24
76052;BME280;64751;48.708;9.710;2024-01-16T01:03:45;97010.66;;;-1.47;83.52
76052;BME280;64751;48.708;9.710;2024-01-16T01:06:17;97018.44;;;-1.47;82.98
76052;BME280;64751;48.708;9.710;2024-01-16T01:08:50;97021.03;;;-1.47;82.82
76052;BME280;64751;48.708;9.710;2024-01-16T01:11:22;97022.59;;;-1.46;82.80
76052;BME280;64751;48.708;9.710;2024-01-16T01:13:56;97021.03;;;-1.47;83.16
76052;BME280;64751;48.708;9.710;2024-01-16T01:16:28;97021.81;;;-1.46;83.71
76052;BME280;64751;48.708;9.710;2024-01-16T01:19:01;97023.19;;;-1.43;83.59
76052;BME280;64751;48.708;9.710;2024-01-16T01:21:29;97030.97;;;-1.43;82.54
76052;BME280;64751;48.708;9.710;2024-01-16T01:24:01;97023.38;;;-1.45;82.65
76052;BME280;64751;48.708;9.710;2024-01-16T01:26:34;97024.97;;;-1.44;83.19
76052;BME280;64751;48.708;9.710;2024-01-16T01:29:08;97030.34;;;-1.46;82.90
76052;BME280;64751;48.708;9.710;2024-01-16T01:31:40;97033.97;;;-1.47;83.12
76052;BME280;64751;48.708;9.710;2024-01-16T01:34:12;97036.78;;;-1.48;82.92
76052;BME280;64751;48.708;9.710;2024-01-16T01:36:45;97048.34;;;-1.51;82.61
76052;BME280;64751;48.708;9.710;2024-01-16T01:39:12;97045.19;;;-1.53;82.97
76052;BME280;64751;48.708;9.710;2024-01-16T01:41:40;97049.75;;;-1.55;83.29
76052;BME280;64751;48.708;9.710;2024-01-16T01:44:13;97048.75;;;-1.54;83.72
76052;BME280;64751;48.708;9.710;2024-01-16T01:46:47;97049.34;;;-1.52;83.04
76052;BME280;64751;48.708;9.710;2024-01-16T01:49:20;97046.97;;;-1.53;83.67
76052;BME280;64751;48.708;9.710;2024-01-16T01:51:52;97052.72;;;-1.51;82.88
76052;BME280;64751;48.708;9.710;2024-01-16T01:54:26;97053.13;;;-1.54;83.07
76052;BME280;64751;48.708;9.710;2024-01-16T01:56:55;97061.47;;;-1.52;83.76
76052;BME280;64751;48.708;9.710;2024-01-16T01:59:29;97058.69;;;-1.51;83.56
76052;BME280;64751;48.708;9.710;2024-01-16T02:02:02;97062.28;;;-1.52;83.59
76052;BME280;64751;48.708;9.710;2024-01-16T02:04:31;97046.00;;;-1.59;83.79
76052;BME280;64751;48.708;9.710;2024-01-16T02:07:04;97066.66;;;-1.52;83.26
76052;BME280;64751;48.708;9.710;2024-01-16T02:09:37;97069.25;;;-1.52;83.47
76052;BME280;64751;48.708;9.710;2024-01-16T02:12:06;97072.63;;;-1.52;83.66
76052;BME280;64751;48.708;9.710;2024-01-16T02:14:35;97071.66;;;-1.51;83.99
76052;BME280;64751;48.708;9.710;2024-01-16T02:17:08;97074.22;;;-1.51;83.89
76052;BME280;64751;48.708;9.710;2024-01-16T02:19:41;97073.44;;;-1.51;84.24
76052;BME280;64751;48.708;9.710;2024-01-16T02:22:09;97069.63;;;-1.49;84.19
76052;BME280;64751;48.708;9.710;2024-01-16T02:24:49;97057.69;;;-1.50;83.63
76052;BME280;64751;48.708;9.710;2024-01-16T02:27:17;97072.78;;;-1.47;83.67
76052;BME280;64751;48.708;9.710;2024-01-16T02:29:44;97064.44;;;-1.49;83.59
76052;BME280;64751;48.708;9.710;2024-01-16T02:32:17;97069.41;;;-1.47;83.60
76052;BME280;64751;48.708;9.710;2024-01-16T02:34:49;97065.44;;;-1.50;83.29
76052;BME280;64751;48.708;9.710;2024-01-16T02:37:23;97069.81;;;-1.50;84.46
76052;BME280;64751;48.708;9.710;2024-01-16T02:39:56;97059.69;;;-1.52;83.43
76052;BME280;64751;48.708;9.710;2024-01-16T02:42:24;97063.06;;;-1.51;83.22
76052;BME280;64751;48.708;9.710;2024-01-16T02:44:51;97054.72;;;-1.53;82.86
76052;BME280;64751;48.708;9.710;2024-01-16T02:47:19;97060.09;;;-1.55;83.80
76052;BME280;64751;48.708;9.710;2024-01-16T02:49:46;97055.94;;;-1.56;83.94
76052;BME280;64751;48.708;9.710;2024-01-16T02:52:13;97050.38;;;-1.59;84.27
76052;BME280;64751;48.708;9.710;2024-01-16T02:54:47;97040.81;;;-1.59;83.57
76052;BME280;64751;48.708;9.710;2024-01-16T02:57:15;97034.09;;;-1.60;84.33
76052;BME280;64751;48.708;9.710;2024-01-16T02:59:43;97030.69;;;-1.60;83.29
76052;BME280;64751;48.708;9.710;2024-01-16T03:02:15;97040.25;;;-1.61;84.23
76052;BME280;64751;48.708;9.710;2024-01-16T03:04:43;97035.66;;;-1.59;83.85
76052;BME280;64751;48.708;9.710;2024-01-16T03:07:10;97030.13;;;-1.62;83.15
76052;BME280;64751;48.708;9.710;2024-01-16T03:09:38;97034.50;;;-1.63;83.42
76052;BME280;64751;48.708;9.710;2024-01-16T03:12:10;97031.91;;;-1.63;83.10
76052;BME280;64751;48.708;9.710;2024-01-16T03:14:39;97032.47;;;-1.61;82.63
76052;BME280;64751;48.708;9.710;2024-01-16T03:17:06;97030.69;;;-1.60;83.24
76052;BME280;64751;48.708;9.710;2024-01-16T03:19:34;97019.44;;;-1.72;82.91
76052;BME280;64751;48.708;9.710;2024-01-16T03:22:01;97037.09;;;-1.63;82.91
76052;BME280;64751;48.708;9.710;2024-01-16T03:24:29;97035.50;;;-1.64;82.73
76052;BME280;64751;48.708;9.710;2024-01-16T03:27:02;97038.06;;;-1.64;83.15
76052;BME280;64751;48.708;9.710;2024-01-16T03:29:35;97045.66;;;-1.62;82.73
76052;BME280;64751;48.708;9.710;2024-01-16T03:32:05;97036.28;;;-1.63;83.23
76052;BME280;64751;48.708;9.710;2024-01-16T03:34:37;97044.63;;;-1.61;82.83
76052;BME280;64751;48.708;9.710;2024-01-16T03:37:11;97037.09;;;-1.63;82.52
76052;BME280;64751;48.708;9.710;2024-01-16T03:39:43;97039.31;;;-1.66;82.23
76052;BME280;64751;48.708;9.710;2024-01-16T03:42:11;97027.72;;;-1.64;82.17
76052;BME280;64751;48.708;9.710;2024-01-16T03:44:39;97036.50;;;-1.65;82.56
76052;BME280;64751;48.708;9.710;2024-01-16T03:47:12;97042.47;;;-1.64;82.71
76052;BME280;64751;48.708;9.710;2024-01-16T03:49:40;97041.69;;;-1.65;82.61
76052;BME280;64751;48.708;9.710;2024-01-16T03:52:08;97043.25;;;-1.64;82.38
76052;BME280;64751;48.708;9.710;2024-01-16T03:54:40;97041.91;;;-1.66;82.82
76052;BME280;64751;48.708;9.710;2024-01-16T03:57:12;97049.28;;;-1.70;83.12
76052;BME280;64751;48.708;9.710;2024-01-16T03:59:40;97049.50;;;-1.71;83.48
76052;BME280;64751;48.708;9.710;2024-01-16T04:02:07;97045.53;;;-1.74;84.48
76052;BME280;64751;48.708;9.710;2024-01-16T04:04:36;97051.13;;;-1.77;83.20
76052;BME280;64751;48.708;9.710;2024-01-16T04:07:03;97047.94;;;-1.79;83.38
76052;BME280;64751;48.708;9.710;2024-01-16T04:09:36;97051.34;;;-1.78;83.10
76052;BME280;64751;48.708;9.710;2024-01-16T04:12:04;97054.72;;;-1.78;83.87
76052;BME280;64751;48.708;9.710;2024-01-16T04:14:40;97062.50;;;-1.78;84.05
76052;BME280;64751;48.708;9.710;2024-01-16T04:17:12;97053.13;;;-1.79;83.97
76052;BME280;64751;48.708;9.710;2024-01-16T04:19:46;97048.19;;;-1.80;83.41
76052;BME280;64751;48.708;9.710;2024-01-16T04:22:13;97059.94;;;-1.84;82.63
76052;BME280;64751;48.708;9.710;2024-01-16T04:24:45;97050.81;;;-1.87;83.51
76052;BME280;64751;48.708;9.710;2024-01-16T04:27:18;97053.63;;;-1.88;84.29
76052;BME280;64751;48.708;9.710;2024-01-16T04:29:46;97060.19;;;-1.92;84.04
76052;BME280;64751;48.708;9.710;2024-01-16T04:32:19;97060.03;;;-1.97;84.27
76052;BME280;64751;48.708;9.710;2024-01-16T04:34:53;97051.72;;;-2.06;83.79
76052;BME280;64751;48.708;9.710;2024-01-16T04:37:25;97055.50;;;-2.08;83.68
76052;BME280;64751;48.708;9.710;2024-01-16T04:39:57;97063.91;;;-2.13;83.13
76052;BME280;64751;48.708;9.710;2024-01-16T04:42:25;97058.97;;;-2.21;83.25
76052;BME280;64751;48.708;9.710;2024-01-16T04:44:58;97055.63;;;-2.28;82.71
76052;BME280;64751;48.708;9.710;2024-01-16T04:47:25;97065.78;;;-2.33;83.27
76052;BME280;64751;48.708;9.710;2024-01-16T04:49:59;97052.91;;;-2.40;83.58
76052;BME280;64751;48.708;9.710;2024-01-16T04:52:26;97053.94;;;-2.47;82.82
76052;BME280;64751;48.708;9.710;2024-01-16T04:54:58;97052.78;;;-2.51;83.33
76052;BME280;64751;48.708;9.710;2024-01-16T04:57:31;97058.72;;;-2.51;83.83
76052;BME280;64751;48.708;9.710;2024-01-16T05:00:05;97054.16;;;-2.55;83.27
76052;BME280;64751;48.708;9.710;2024-01-16T05:02:33;97062.53;;;-2.60;84.31
76052;BME280;64751;48.708;9.710;2024-01-16T05:05:02;97069.34;;;-2.65;83.63
76052;BME280;64751;48.708;9.710;2024-01-16T05:07:34;97058.81;;;-2.70;84.15
76052;BME280;64751;48.708;9.710;2024-01-16T05:10:02;97058.22;;;-2.72;84.00
76052;BME280;64751;48.708;9.710;2024-01-16T05:12:34;97049.69;;;-2.79;83.74
76052;BME280;64751;48.708;9.710;2024-01-16T05:15:07;97045.94;;;-2.83;83.64
76052;BME280;64751;48.708;9.710;2024-01-16T05:17:39;97041.38;;;-2.88;84.23
76052;BME280;64751;48.708;9.710;2024-01-16T05:20:09;97046.19;;;-2.91;84.99
76052;BME280;64751;48.708;9.710;2024-01-16T05:22:36;97045.38;;;-2.92;85.57
76052;BME280;64751;48.708;9.710;2024-01-16T05:25:06;97039.63;;;-2.94;85.48
76052;BME280;64751;48.708;9.710;2024-01-16T05:27:34;97035.66;;;-2.97;85.69
76052;BME280;64751;48.708;9.710;2024-01-16T05:30:01;97039.03;;;-3.03;85.23
76052;BME280;64751;48.708;9.710;2024-01-16T05:32:29;97039.06;;;-3.09;84.85
76052;BME280;64751;48.708;9.710;2024-01-16T05:34:56;97027.75;;;-3.15;84.72
76052;BME280;64751;48.708;9.710;2024-01-16T05:37:25;97031.53;;;-3.17;85.08
76052;BME280;64751;48.708;9.710;2024-01-16T05:39:55;97024.78;;;-3.25;84.57
76052;BME280;64751;48.708;9.710;2024-01-16T05:42:23;97034.34;;;-3.25;84.83
76052;BME280;64751;48.708;9.710;2024-01-16T05:44:51;97025.22;;;-3.34;84.64
76052;BME280;64751;48.708;9.710;2024-01-16T05:47:25;97027.03;;;-3.41;83.91
76052;BME280;64751;48.708;9.710;2024-01-16T05:49:54;97016.31;;;-3.51;83.95
76052;BME280;64751;48.708;9.710;2024-01-16T05:52:21;97016.13;;;-3.63;83.55
76052;BME280;64751;48.708;9.710;2024-01-16T05:54:55;97023.09;;;-3.70;83.67
76052;BME280;64751;48.708;9.710;2024-01-16T05:57:24;97020.09;;;-3.74;84.53
76052;BME280;64751;48.708;9.710;2024-01-16T05:59:56;97023.88;;;-3.83;84.02
76052;BME280;64751;48.708;9.710;2024-01-16T06:02:24;97022.91;;;-3.88;84.89
76052;BME280;64751;48.708;9.710;2024-01-16T06:04:56;97019.09;;;-3.92;84.88
76052;BME280;64751;48.708;9.710;2024-01-16T06:07:24;97016.72;;;-3.94;84.70
76052;BME280;64751;48.708;9.710;2024-01-16T06:09:58;97015.94;;;-4.01;84.99
76052;BME280;64751;48.708;9.710;2024-01-16T06:12:30;97016.94;;;-4.08;84.85
76052;BME280;64751;48.708;9.710;2024-01-16T06:15:03;97016.13;;;-4.09;85.21
76052;BME280;64751;48.708;9.710;2024-01-16T06:17:36;97022.09;;;-4.08;86.00
76052;BME280;64751;48.708;9.710;2024-01-16T06:20:04;97019.09;;;-4.05;85.52
76052;BME280;64751;48.708;9.710;2024-01-16T06:22:32;97018.50;;;-4.07;85.35
76052;BME280;64751;48.708;9.710;2024-01-16T06:25:01;97016.13;;;-4.09;85.24
76052;BME280;64751;48.708;9.710;2024-01-16T06:27:34;97010.78;;;-4.14;84.44
76052;BME280;64751;48.708;9.710;2024-01-16T06:30:01;97015.13;;;-4.14;85.72
76052;BME280;64751;48.708;9.710;2024-01-16T06:32:35;97014.34;;;-4.15;85.86
76052;BME280;64751;48.708;9.710;2024-01-16T06:35:02;97021.06;;;-4.20;86.08
76052;BME280;64751;48.708;9.710;2024-01-16T06:37:29;97021.47;;;-4.17;86.60
76052;BME280;64751;48.708;9.710;2024-01-16T06:40:04;97021.09;;;-4.14;86.59
76052;BME280;64751;48.708;9.710;2024-01-16T06:42:32;97018.50;;;-4.14;86.62
76052;BME280;64751;48.708;9.710;2024-01-16T06:45:05;97023.06;;;-4.16;86.28
76052;BME280;64751;48.708;9.710;2024-01-16T06:47:38;97015.94;;;-4.14;87.21
76052;BME280;64751;48.708;9.710;2024-01-16T06:50:08;97021.88;;;-4.13;87.22
76052;BME280;64751;48.708;9.710;2024-01-16T06:52:40;97016.72;;;-4.13;86.98
76052;BME280;64751;48.708;9.710;2024-01-16T06:55:10;97022.09;;;-4.08;87.70
76052;BME280;64751;48.708;9.710;2024-01-16T06:57:37;97021.88;;;-4.07;87.66
76052;BME280;64751;48.708;9.710;2024-01-16T07:00:11;97025.44;;;-4.08;88.03
76052;BME280;64751;48.708;9.710;2024-01-16T07:02:40;97022.09;;;-4.08;87.39
76052;BME280;64751;48.708;9.710;2024-01-16T07:05:14;97019.09;;;-4.05;87.77
76052;BME280;64751;48.708;9.710;2024-01-16T07:07:46;97026.66;;;-4.04;87.44
76052;BME280;64751;48.708;9.710;2024-01-16T07:10:20;97031.00;;;-4.04;87.83
76052;BME280;64751;48.708;9.710;2024-01-16T07:12:49;97039.72;;;-4.05;88.20
76052;BME280;64751;48.708;9.710;2024-01-16T07:15:17;97044.69;;;-4.04;87.99
76052;BME280;64751;48.708;9.710;2024-01-16T07:17:45;97044.88;;;-3.99;88.44
76052;BME280;64751;48.708;9.710;2024-01-16T07:20:12;97042.91;;;-3.97;88.59
76052;BME280;64751;48.708;9.710;2024-01-16T07:22:45;97039.56;;;-3.97;87.85
76052;BME280;64751;48.708;9.710;2024-01-16T07:25:17;97041.31;;;-3.98;88.04
76052;BME280;64751;48.708;9.710;2024-01-16T07:27:51;97039.13;;;-3.94;88.63
76052;BME280;64751;48.708;9.710;2024-01-16T07:30:19;97040.75;;;-3.93;88.50
76052;BME280;64751;48.708;9.710;2024-01-16T07:32:46;97045.88;;;-4.00;87.97
76052;BME280;64751;48.708;9.710;2024-01-16T07:35:14;97039.34;;;-3.96;88.10
76052;BME280;64751;48.708;9.710;2024-01-16T07:37:41;97038.16;;;-3.93;88.12
76052;BME280;64751;48.708;9.710;2024-01-16T07:40:14;97033.97;;;-3.94;88.16
76052;BME280;64751;48.708;9.710;2024-01-16T07:42:48;97035.38;;;-3.92;88.72
76052;BME280;64751;48.708;9.710;2024-01-16T07:45:21;97030.63;;;-3.88;88.45
76052;BME280;64751;48.708;9.710;2024-01-16T07:47:49;97032.19;;;-3.87;88.69
76052;BME280;64751;48.708;9.710;2024-01-16T07:50:16;97033.22;;;-3.82;88.65
76052;BME280;64751;48.708;9.710;2024-01-16T07:52:44;97032.63;;;-3.77;88.00
76052;BME280;64751;48.708;9.710;2024-01-16T07:55:11;97037.94;;;-3.72;88.37
76052;BME280;64751;48.708;9.710;2024-01-16T07:57:44;97040.13;;;-3.69;88.10
76052;BME280;64751;48.708;9.710;2024-01-16T08:00:12;97044.91;;;-3.66;87.98
76052;BME280;64751;48.708;9.710;2024-01-16T08:02:41;97030.63;;;-3.62;87.95
76052;BME280;64751;48.708;9.710;2024-01-16T08:05:14;97039.34;;;-3.63;88.66
76052;BME280;64751;48.708;9.710;2024-01-16T08:07:46;97042.53;;;-3.61;88.13
76052;BME280;64751;48.708;9.710;2024-01-16T08:10:19;97035.78;;;-3.62;88.13
76052;BME280;64751;48.708;9.710;2024-01-16T08:12:51;97033.41;;;-3.57;88.05
76052;BME280;64751;48.708;9.710;2024-01-16T08:15:23;97038.13;;;-3.54;88.07
76052;BME280;64751;48.708;9.710;2024-01-16T08:17:53;97035.75;;;-3.49;88.53
76052;BME280;64751;48.708;9.710;2024-01-16T08:20:20;97043.50;;;-3.42;88.54
76052;BME280;64751;48.708;9.710;2024-01-16T08:22:53;97047.06;;;-3.37;88.28
76052;BME280;64751;48.708;9.710;2024-01-16T08:25:25;97042.88;;;-3.31;88.52
76052;BME280;64751;48.708;9.710;2024-01-16T08:27:53;97038.50;;;-3.24;88.36
76052;BME280;64751;48.708;9.710;2024-01-16T08:30:21;97036.13;;;-3.19;88.77
76052;BME280;64751;48.708;9.710;2024-01-16T08:32:55;97030.34;;;-3.15;89.21
76052;BME280;64751;48.708;9.710;2024-01-16T08:35:27;97035.28;;;-3.07;89.10
76052;BME280;64751;48.708;9.710;2024-01-16T08:37:55;97037.66;;;-2.99;88.17
76052;BME280;64751;48.708;9.710;2024-01-16T08:40:27;97039.19;;;-2.91;88.83
76052;BME280;64751;48.708;9.710;2024-01-16T08:42:54;97047.16;;;-2.86;87.52
76052;BME280;64751;48.708;9.710;2024-01-16T08:45:22;97039.38;;;-2.79;88.10
76052;BME280;64751;48.708;9.710;2024-01-16T08:47:56;97038.75;;;-2.75;88.11
76052;BME280;64751;48.708;9.710;2024-01-16T08:50:29;97039.75;;;-2.69;87.59
76052;BME280;64751;48.708;9.710;2024-01-16T08:53:01;97044.06;;;-2.63;87.73
76052;BME280;64751;48.708;9.710;2024-01-16T08:55:29;97026.75;;;-2.56;87.43
76052;BME280;64751;48.708;9.710;2024-01-16T08:58:01;97029.50;;;-2.45;86.49
76052;BME280;64751;48.708;9.710;2024-01-16T09:00:34;97033.25;;;-2.41;84.78
76052;BME280;64751;48.708;9.710;2024-01-16T09:03:03;97027.06;;;-2.40;82.70
76052;BME280;64751;48.708;9.710;2024-01-16T09:05:31;97030.41;;;-2.33;82.75
76052;BME280;64751;48.708;9.710;2024-01-16T09:08:01;97027.44;;;-2.36;81.45
76052;BME280;64751;48.708;9.710;2024-01-16T09:10:28;97025.22;;;-2.33;80.96
76052;BME280;64751;48.708;9.710;2024-01-16T09:12:56;97019.59;;;-2.23;81.29
76052;BME280;64751;48.708;9.710;2024-01-16T09:15:25;97027.72;;;-2.13;82.31
76052;BME280;64751;48.708;9.710;2024-01-16T09:17:52;97035.22;;;-2.05;82.15
76052;BME280;64751;48.708;9.710;2024-01-16T09:20:21;97033.97;;;-1.96;81.87
76052;BME280;64751;48.708;9.710;2024-01-16T09:22:50;97038.09;;;-1.88;82.21
76052;BME280;64751;48.708;9.710;2024-01-16T09:25:22;97028.28;;;-1.80;81.78
76052;BME280;64751;48.708;9.710;2024-01-16T09:27:50;97042.94;;;-1.74;81.43
76052;BME280;64751;48.708;9.710;2024-01-16T09:30:19;97042.66;;;-1.66;81.73
76052;BME280;64751;48.708;9.710;2024-01-16T09:32:53;97046.00;;;-1.59;82.04
76052;BME280;64751;48.708;9.710;2024-01-16T09:35:27;97040.00;;;-1.53;81.68
76052;BME280;64751;48.708;9.710;2024-01-16T09:37:59;97047.31;;;-1.50;81.23
76052;BME280;64751;48.708;9.710;2024-01-16T09:40:27;97053.06;;;-1.48;81.57
76052;BME280;64751;48.708;9.710;2024-01-16T09:42:59;97052.44;;;-1.43;81.91
76052;BME280;64751;48.708;9.710;2024-01-16T09:45:33;97045.81;;;-1.39;81.13
76052;BME280;64751;48.708;9.710;2024-01-16T09:48:10;97046.22;;;-1.35;81.02
76052;BME280;64751;48.708;9.710;2024-01-16T09:50:40;97046.56;;;-1.32;80.10
76052;BME280;64751;48.708;9.710;2024-01-16T09:53:13;97041.78;;;-1.28;78.28
76052;BME280;64751;48.708;9.710;2024-01-16T09:55:40;97041.94;;;-1.23;77.57
76052;BME280;64751;48.708;9.710;2024-01-16T09:58:09;97036.88;;;-1.18;77.19
76052;BME280;64751;48.708;9.710;2024-01-16T10:00:46;97040.84;;;-1.16;78.36
76052;BME280;64751;48.708;9.710;2024-01-16T10:03:15;97035.25;;;-1.13;76.80
76052;BME280;64751;48.708;9.710;2024-01-16T10:05:44;97039.78;;;-1.08;77.29
76052;BME280;64751;48.708;9.710;2024-01-16T10:08:12;97039.19;;;-1.10;76.88
76052;BME280;64751;48.708;9.710;2024-01-16T10:10:44;97036.03;;;-1.12;74.82
76052;BME280;64751;48.708;9.710;2024-01-16T10:13:13;97045.38;;;-1.11;74.93
76052;BME280;64751;48.708;9.710;2024-01-16T10:15:41;97039.78;;;-1.08;74.18
76052;BME280;64751;48.708;9.710;2024-01-16T10:18:22;97033.56;;;-1.07;73.62
76052;BME280;64751;48.708;9.710;2024-01-16T10:20:53;97046.84;;;-0.97;74.41
76052;BME280;64751;48.708;9.710;2024-01-16T10:23:24;97042.00;;;-0.94;74.31
76052;BME280;64751;48.708;9.710;2024-01-16T10:26:07;97039.34;;;-0.87;72.52
76052;BME280;64751;48.708;9.710;2024-01-16T10:28:35;97041.28;;;-0.83;72.00
76052;BME280;64751;48.708;9.710;2024-01-16T10:31:04;97026.09;;;-0.79;72.75
76052;BME280;64751;48.708;9.710;2024-01-16T10:33:32;97021.84;;;-0.74;73.39
76052;BME280;64751;48.708;9.710;2024-01-16T10:36:10;97013.56;;;-0.64;74.73
76052;BME280;64751;48.708;9.710;2024-01-16T10:38:39;97009.50;;;-0.60;72.62
76052;BME280;64751;48.708;9.710;2024-01-16T10:41:13;97007.06;;;-0.55;72.18
76052;BME280;64751;48.708;9.710;2024-01-16T10:43:46;97009.34;;;-0.47;73.11
76052;BME280;64751;48.708;9.710;2024-01-16T10:46:14;97005.75;;;-0.46;72.48
76052;BME280;64751;48.708;9.710;2024-01-16T10:48:58;97000.97;;;-0.49;72.00
76052;BME280;64751;48.708;9.710;2024-01-16T10:51:32;96993.78;;;-0.47;72.50
76052;BME280;64751;48.708;9.710;2024-01-16T10:54:05;96992.63;;;-0.51;72.10
76052;BME280;64751;48.708;9.710;2024-01-16T10:56:43;96993.00;;;-0.47;73.45
76052;BME280;64751;48.708;9.710;2024-01-16T10:59:16;96984.66;;;-0.49;72.71
76052;BME280;64751;48.708;9.710;2024-01-16T11:01:47;96980.34;;;-0.55;73.43
76052;BME280;64751;48.708;9.710;2024-01-16T11:04:20;96993.88;;;-0.53;72.81
76052;BME280;64751;48.708;9.710;2024-01-16T11:06:53;97003.56;;;-0.49;71.32
76052;BME280;64751;48.708;9.710;2024-01-16T11:09:21;96999.19;;;-0.48;72.16
76052;BME280;64751;48.708;9.710;2024-01-16T11:11:54;96991.31;;;-0.42;73.15
76052;BME280;64751;48.708;9.710;2024-01-16T11:14:28;96990.22;;;-0.34;72.12
76052;BME280;64751;48.708;9.710;2024-01-16T11:16:58;96986.31;;;-0.25;71.79
76052;BME280;64751;48.708;9.710;2024-01-16T11:19:28;96986.41;;;-0.20;72.61
76052;BME280;64751;48.708;9.710;2024-01-16T11:22:02;96976.16;;;-0.15;70.90
76052;BME280;64751;48.708;9.710;2024-01-16T11:24:31;96968.63;;;-0.17;71.38
76052;BME280;64751;48.708;9.710;2024-01-16T11:27:03;96967.03;;;-0.18;70.54
76052;BME280;64751;48.708;9.710;2024-01-16T11:29:35;96955.53;;;-0.22;71.29
76052;BME280;64751;48.708;9.710;2024-01-16T11:32:04;96944.34;;;-0.22;70.03
76052;BME280;64751;48.708;9.710;2024-01-16T11:34:57;96934.44;;;-0.25;69.80
76052;BME280;64751;48.708;9.710;2024-01-16T11:37:28;96939.25;;;-0.29;68.13
76052;BME280;64751;48.708;9.710;2024-01-16T11:40:23;96931.72;;;-0.30;70.22
76052;BME280;64751;48.708;9.710;2024-01-16T11:42:53;96931.72;;;-0.30;70.86
76052;BME280;64751;48.708;9.710;2024-01-16T11:45:50;96924.72;;;-0.30;69.44
76052;BME280;64751;48.708;9.710;2024-01-16T11:48:18;96923.00;;;-0.36;70.92
76052;BME280;64751;48.708;9.710;2024-01-16T11:50:47;96914.31;;;-0.41;70.18
76052;BME280;64751;48.708;9.710;2024-01-16T11:53:34;96910.59;;;-0.45;69.75
76052;BME280;64751;48.708;9.710;2024-01-16T11:56:26;96902.25;;;-0.47;71.53
76052;BME280;64751;48.708;9.710;2024-01-16T11:59:02;96901.44;;;-0.48;71.78
76052;BME280;64751;48.708;9.710;2024-01-16T12:01:43;96898.50;;;-0.51;71.81
76052;BME280;64751;48.708;9.710;2024-01-16T12:04:17;96890.38;;;-0.55;68.08
76052;BME280;64751;48.708;9.710;2024-01-16T12:06:57;96890.38;;;-0.55;70.53
76052;BME280;64751;48.708;9.710;2024-01-16T12:09:30;96884.97;;;-0.53;72.29
76052;BME280;64751;48.708;9.710;2024-01-16T12:12:00;96879.22;;;-0.55;67.24
76052;BME280;64751;48.708;9.710;2024-01-16T12:14:33;96875.75;;;-0.49;69.55
76052;BME280;64751;48.708;9.710;2024-01-16T12:17:11;96879.69;;;-0.47;70.87
76052;BME280;64751;48.708;9.710;2024-01-16T12:19:38;96880.25;;;-0.45;70.50
76052;BME280;64751;48.708;9.710;2024-01-16T12:22:08;96872.84;;;-0.41;67.55
76052;BME280;64751;48.708;9.710;2024-01-16T12:24:37;96880.38;;;-0.40;67.60
76052;BME280;64751;48.708;9.710;2024-01-16T12:27:09;96874.31;;;-0.34;67.91
76052;BME280;64751;48.708;9.710;2024-01-16T12:29:42;96865.88;;;-0.29;67.64
76052;BME280;64751;48.708;9.710;2024-01-16T12:32:10;96860.56;;;-0.23;69.22
76052;BME280;64751;48.708;9.710;2024-01-16T12:34:47;96843.97;;;-0.22;65.39
76052;BME280;64751;48.708;9.710;2024-01-16T12:37:20;96844.91;;;-0.16;66.98
76052;BME280;64751;48.708;9.710;2024-01-16T12:39:49;96840.72;;;-0.17;68.23
76052;BME280;64751;48.708;9.710;2024-01-16T12:42:18;96841.94;;;-0.20;69.11
76052;BME280;64751;48.708;9.710;2024-01-16T12:44:51;96826.84;;;-0.23;69.64
76052;BME280;64751;48.708;9.710;2024-01-16T12:47:24;96822.91;;;-0.25;69.59
76052;BME280;64751;48.708;9.710;2024-01-16T12:49:51;96827.84;;;-0.24;67.97
76052;BME280;64751;48.708;9.710;2024-01-16T12:52:25;96824.81;;;-0.21;69.23
76052;BME280;64751;48.708;9.710;2024-01-16T12:55:00;96822.53;;;-0.17;70.26
76052;BME280;64751;48.708;9.710;2024-01-16T12:57:32;96820.88;;;-0.12;69.85
76052;BME280;64751;48.708;9.710;2024-01-16T13:00:00;96814.75;;;-0.06;68.93
76052;BME280;64751;48.708;9.710;2024-01-16T13:02:35;96813.84;;;0.00;65.97
76052;BME280;64751;48.708;9.710;2024-01-16T13:05:08;96813.50;;;0.09;66.21
76052;BME280;64751;48.708;9.710;2024-01-16T13:07:40;96803.31;;;0.19;66.63
76052;BME280;64751;48.708;9.710;2024-01-16T13:10:14;96800.41;;;0.27;66.81
76052;BME280;64751;48.708;9.710;2024-01-16T13:12:49;96802.63;;;0.35;66.82
76052;BME280;64751;48.708;9.710;2024-01-16T13:15:17;96797.53;;;0.40;66.13
76052;BME280;64751;48.708;9.710;2024-01-16T13:17:50;96795.81;;;0.45;66.46
76052;BME280;64751;48.708;9.710;2024-01-16T13:20:17;96800.56;;;0.48;66.53